createdAt,value
2023-04-04T00:00:52.102Z,53.30
2023-04-04T00:03:19.212Z,52.64
2023-04-04T00:05:46.352Z,53.73
2023-04-04T00:08:13.445Z,52.52
2023-04-04T00:10:40.829Z,53.75
2023-04-04T00:13:09.351Z,53.11
2023-04-04T00:15:39.196Z,52.93
2023-04-04T00:18:08.861Z,53.54
2023-04-04T00:20:38.529Z,53.94
2023-04-04T00:23:05.775Z,54.06
2023-04-04T00:25:35.389Z,54.75
2023-04-04T00:28:02.268Z,54.30
2023-04-04T00:30:32.157Z,54.13
2023-04-04T00:33:02.059Z,54.48
2023-04-04T00:35:29.516Z,54.34
2023-04-04T00:37:56.831Z,54.46
2023-04-04T00:40:26.780Z,54.72
2023-04-04T00:42:54.079Z,54.37
2023-04-04T00:45:21.668Z,54.70
2023-04-04T00:47:50.536Z,55.34
2023-04-04T00:50:17.990Z,55.47
2023-04-04T00:52:44.868Z,55.16
2023-04-04T00:55:14.566Z,56.14
2023-04-04T00:57:41.460Z,55.66
2023-04-04T01:00:12.032Z,55.66
2023-04-04T01:02:39.382Z,55.41
2023-04-04T01:05:08.354Z,55.00
2023-04-04T01:07:40.520Z,55.72
2023-04-04T01:10:11.470Z,55.84
2023-04-04T01:12:42.058Z,56.21
2023-04-04T01:15:09.852Z,55.54
2023-04-04T01:17:39.957Z,55.94
2023-04-04T01:20:15.934Z,56.01
2023-04-04T01:22:48.218Z,57.14
2023-04-04T01:25:16.446Z,57.25
2023-04-04T01:27:43.616Z,57.14
2023-04-04T01:30:12.542Z,56.68
2023-04-04T01:32:57.475Z,56.08
2023-04-04T01:35:44.398Z,56.73
2023-04-04T01:38:40.563Z,58.46
2023-04-04T01:41:12.254Z,59.37
2023-04-04T01:43:41.623Z,60.62
2023-04-04T01:46:10.979Z,60.70
2023-04-04T01:48:38.285Z,61.63
2023-04-04T01:51:06.359Z,61.93
2023-04-04T01:53:33.467Z,62.21
2023-04-04T01:56:03.514Z,63.58
2023-04-04T01:58:33.017Z,63.09
2023-04-04T02:01:00.059Z,63.20
2023-04-04T02:03:27.025Z,63.48
2023-04-04T02:05:54.337Z,63.44
2023-04-04T02:08:23.665Z,64.76
2023-04-04T02:10:50.740Z,64.63
2023-04-04T02:13:20.933Z,64.92
2023-04-04T02:15:49.394Z,65.26
2023-04-04T02:18:16.750Z,65.09
2023-04-04T02:20:45.080Z,65.37
2023-04-04T02:23:12.212Z,66.02
2023-04-04T02:25:39.241Z,66.44
2023-04-04T02:28:08.643Z,65.89
2023-04-04T02:30:35.625Z,66.11
2023-04-04T02:33:02.810Z,64.76
2023-04-04T02:35:29.927Z,65.65
2023-04-04T02:37:56.909Z,64.75
2023-04-04T02:40:23.993Z,64.94
2023-04-04T02:42:53.294Z,64.12
2023-04-04T02:45:25.910Z,65.56
2023-04-04T02:47:54.991Z,64.84
2023-04-04T02:50:22.391Z,64.57
2023-04-04T02:52:49.379Z,64.22
2023-04-04T02:55:16.525Z,64.85
2023-04-04T02:57:46.047Z,65.04
2023-04-04T03:00:13.641Z,65.08
2023-04-04T03:02:41.075Z,64.86
2023-04-04T03:05:08.671Z,64.24
2023-04-04T03:07:38.331Z,63.74
2023-04-04T03:10:05.866Z,63.90
2023-04-04T03:12:32.828Z,63.98
2023-04-04T03:14:59.906Z,63.61
2023-04-04T03:17:26.873Z,63.89
2023-04-04T03:19:53.885Z,63.90
2023-04-04T03:22:21.017Z,63.30
2023-04-04T03:24:51.174Z,65.04
2023-04-04T03:27:18.117Z,65.93
2023-04-04T03:29:45.056Z,65.39
2023-04-04T03:32:12.066Z,66.12
2023-04-04T03:34:44.745Z,65.57
2023-04-04T03:37:11.907Z,65.78
2023-04-04T03:39:38.966Z,65.63
2023-04-04T03:42:06.194Z,66.06
2023-04-04T03:44:40.731Z,67.20
2023-04-04T03:47:10.331Z,67.17
2023-04-04T03:49:39.379Z,67.06
2023-04-04T03:52:06.681Z,66.46
2023-04-04T03:54:37.248Z,66.93
2023-04-04T03:57:04.501Z,67.66
2023-04-04T03:59:33.672Z,67.20
2023-04-04T04:02:03.145Z,67.37
2023-04-04T04:04:30.276Z,67.46
2023-04-04T04:06:59.691Z,67.57
2023-04-04T04:09:27.175Z,67.50
2023-04-04T04:11:54.216Z,67.90
2023-04-04T04:14:21.267Z,67.75
2023-04-04T04:16:48.276Z,67.37
2023-04-04T04:19:17.442Z,67.26
2023-04-04T04:21:44.925Z,67.38
2023-04-04T04:24:11.909Z,67.85
2023-04-04T04:26:38.895Z,67.44
2023-04-04T04:29:07.357Z,67.10
2023-04-04T04:31:38.926Z,67.74
2023-04-04T04:34:13.643Z,67.61
2023-04-04T04:36:41.148Z,67.05
2023-04-04T04:39:08.111Z,67.18
2023-04-04T04:41:39.655Z,66.58
2023-04-04T04:44:08.904Z,66.86
2023-04-04T04:46:35.868Z,66.46
2023-04-04T04:49:05.856Z,66.08
2023-04-04T04:51:35.038Z,66.54
2023-04-04T04:54:02.102Z,66.52
2023-04-04T04:56:29.140Z,66.08
2023-04-04T04:59:01.612Z,64.90
2023-04-04T05:01:28.773Z,65.66
2023-04-04T05:03:59.127Z,65.83
2023-04-04T05:06:28.624Z,65.53
2023-04-04T05:08:57.859Z,65.19
2023-04-04T05:11:27.257Z,63.64
2023-04-04T05:13:57.347Z,65.30
2023-04-04T05:16:24.459Z,64.93
2023-04-04T05:18:53.475Z,64.98
2023-04-04T05:21:20.936Z,65.51
2023-04-04T05:23:48.631Z,65.08
2023-04-04T05:26:15.754Z,64.09
2023-04-04T05:28:42.749Z,64.09
2023-04-04T05:31:12.129Z,63.50
2023-04-04T05:33:39.074Z,63.58
2023-04-04T05:36:06.300Z,62.62
2023-04-04T05:41:00.510Z,61.83
2023-04-04T05:43:32.753Z,62.07
2023-04-04T05:45:59.827Z,61.59
2023-04-04T05:48:29.272Z,61.62
2023-04-04T05:50:56.614Z,62.53
2023-04-04T05:53:28.220Z,61.32
2023-04-04T05:55:58.833Z,61.42
2023-04-04T05:58:28.124Z,60.85
2023-04-04T06:00:57.334Z,61.22
2023-04-04T06:03:24.216Z,60.66
2023-04-04T06:05:57.258Z,61.14
2023-04-04T06:08:24.261Z,60.90
2023-04-04T06:10:51.346Z,60.43
2023-04-04T06:13:18.337Z,60.46
2023-04-04T06:15:48.444Z,58.63
2023-04-04T06:18:17.396Z,60.06
2023-04-04T06:20:44.594Z,59.00
2023-04-04T06:23:11.779Z,59.09
2023-04-04T06:25:41.563Z,58.58
2023-04-04T06:28:09.236Z,57.96
2023-04-04T06:30:38.270Z,58.15
2023-04-04T06:33:06.262Z,58.00
2023-04-04T06:35:36.424Z,58.13
2023-04-04T06:38:05.560Z,56.94
2023-04-04T06:40:32.863Z,56.42
2023-04-04T06:43:00.144Z,56.41
2023-04-04T06:45:33.558Z,55.83
2023-04-04T06:48:01.331Z,54.90
2023-04-04T06:50:34.210Z,53.97
2023-04-04T06:53:04.254Z,52.65
2023-04-04T06:55:34.501Z,50.13
2023-04-04T06:58:04.082Z,48.49
2023-04-04T07:00:33.508Z,47.88
2023-04-04T07:03:03.069Z,46.21
2023-04-04T07:05:30.243Z,44.83
2023-04-04T07:08:01.820Z,42.78
2023-04-04T07:10:31.121Z,41.41
2023-04-04T07:12:58.181Z,40.13
2023-04-04T07:15:25.188Z,39.10
2023-04-04T07:17:55.266Z,38.92
2023-04-04T07:20:24.742Z,36.51
2023-04-04T07:22:56.637Z,37.08
2023-04-04T07:25:26.112Z,36.10
2023-04-04T07:28:02.362Z,34.56
2023-04-04T07:30:42.002Z,32.48
2023-04-04T07:33:11.906Z,31.06
2023-04-04T07:35:38.910Z,29.40
2023-04-04T07:38:05.905Z,28.23
2023-04-04T07:40:32.909Z,28.82
2023-04-04T07:42:59.884Z,27.73
2023-04-04T07:45:27.017Z,27.19
2023-04-04T07:47:59.572Z,27.23
2023-04-04T07:50:26.553Z,28.73
2023-04-04T07:52:55.910Z,26.95
2023-04-04T07:55:26.143Z,25.80
2023-04-04T07:57:54.655Z,25.07
2023-04-04T08:00:26.633Z,23.85
2023-04-04T08:02:59.248Z,22.43
2023-04-04T08:05:28.828Z,22.08
2023-04-04T08:07:55.798Z,21.52
2023-04-04T08:10:22.737Z,21.79
2023-04-04T08:12:53.311Z,21.89
2023-04-04T08:15:22.734Z,21.33
2023-04-04T08:17:50.298Z,20.30
2023-04-04T08:20:17.709Z,20.36
2023-04-04T08:22:46.970Z,20.04
2023-04-04T08:25:14.709Z,18.92
2023-04-04T08:27:44.152Z,18.32
2023-04-04T08:30:13.547Z,17.95
2023-04-04T08:32:42.102Z,17.18
2023-04-04T08:35:12.349Z,17.54
2023-04-04T08:37:39.829Z,17.70
2023-04-04T08:40:07.724Z,17.66
2023-04-04T08:42:36.784Z,17.68
2023-04-04T08:45:05.320Z,17.27
2023-04-04T08:47:36.212Z,17.93
2023-04-04T08:50:08.574Z,18.37
2023-04-04T08:52:38.201Z,17.42
2023-04-04T08:55:06.583Z,16.53
2023-04-04T08:57:33.953Z,16.73
2023-04-04T09:00:02.476Z,16.42
2023-04-04T09:03:08.298Z,17.57
2023-04-04T09:05:37.999Z,19.01
2023-04-04T09:08:09.176Z,20.94
2023-04-04T09:10:39.538Z,22.38
2023-04-04T09:13:15.458Z,23.43
2023-04-04T09:15:49.552Z,23.07
2023-04-04T09:18:19.648Z,22.91
2023-04-04T09:20:48.768Z,23.42
2023-04-04T09:23:23.951Z,22.89
2023-04-04T09:28:27.330Z,19.74
2023-04-04T09:30:56.680Z,19.09
2023-04-04T09:33:28.249Z,18.47
2023-04-04T09:35:58.920Z,17.65
2023-04-04T09:38:27.796Z,17.93
2023-04-04T09:40:55.995Z,17.02
2023-04-04T09:43:31.062Z,15.92
2023-04-04T09:46:00.593Z,16.46
2023-04-04T09:48:32.761Z,16.32
2023-04-04T09:51:02.294Z,16.59
2023-04-04T09:53:32.444Z,16.51
2023-04-04T09:55:59.468Z,15.95
2023-04-04T09:58:32.727Z,15.81
2023-04-04T10:01:12.606Z,16.08
2023-04-04T10:03:39.924Z,15.75
2023-04-04T10:06:12.874Z,14.59
2023-04-04T10:08:41.512Z,14.13
2023-04-04T10:11:11.362Z,14.60
2023-04-04T10:13:43.870Z,14.53
2023-04-04T10:16:13.694Z,14.63
2023-04-04T10:18:42.851Z,14.73
2023-04-04T10:21:15.870Z,14.80
2023-04-04T10:23:46.964Z,14.76
2023-04-04T10:26:14.445Z,14.60
2023-04-04T10:28:44.034Z,15.64
2023-04-04T10:31:20.355Z,14.99
2023-04-04T10:34:17.982Z,14.47
2023-04-04T10:37:10.763Z,15.17
2023-04-04T10:40:03.362Z,17.04
2023-04-04T10:42:40.836Z,17.51
2023-04-04T10:45:20.976Z,19.38
2023-04-04T10:47:49.450Z,19.26
2023-04-04T10:50:18.946Z,19.10
2023-04-04T10:52:48.472Z,20.27
2023-04-04T10:55:17.284Z,20.04
2023-04-04T10:57:52.944Z,18.93
2023-04-04T11:00:23.373Z,19.69
2023-04-04T11:02:59.628Z,18.76
2023-04-04T11:05:31.843Z,16.34
2023-04-04T11:10:37.212Z,14.79
2023-04-04T11:13:14.385Z,14.46
2023-04-04T11:16:21.531Z,14.49
2023-04-04T11:18:54.760Z,14.92
2023-04-04T11:21:29.964Z,15.29
2023-04-04T11:24:02.147Z,14.00
2023-04-04T11:26:29.037Z,14.01
2023-04-04T11:29:08.100Z,14.10
2023-04-04T11:31:42.408Z,14.08
2023-04-04T11:34:13.753Z,13.70
2023-04-04T11:36:41.602Z,14.17
2023-04-04T11:39:14.869Z,13.03
2023-04-04T11:42:04.958Z,13.17
2023-04-04T11:44:34.654Z,13.21
2023-04-04T11:47:09.657Z,14.09
2023-04-04T11:49:42.434Z,12.88
2023-04-04T11:52:14.325Z,12.83
2023-04-04T11:54:45.755Z,13.65
2023-04-04T11:57:15.637Z,16.31
2023-04-04T11:59:47.982Z,18.33
2023-04-04T12:02:32.183Z,18.28
2023-04-04T12:04:59.870Z,18.48
2023-04-04T12:07:29.284Z,17.20
2023-04-04T12:09:58.902Z,14.82
2023-04-04T12:12:28.317Z,15.53
2023-04-04T12:15:06.267Z,16.14
2023-04-04T12:17:44.105Z,16.29
2023-04-04T12:20:15.999Z,16.72
2023-04-04T12:22:43.309Z,17.20
2023-04-04T12:25:11.335Z,17.49
2023-04-04T12:27:38.729Z,17.39
2023-04-04T12:30:11.333Z,15.65
2023-04-04T12:32:41.652Z,14.24
2023-04-04T12:35:13.427Z,13.90
2023-04-04T12:37:56.417Z,13.91
2023-04-04T12:40:23.779Z,13.58
2023-04-04T12:42:55.374Z,12.85
2023-04-04T12:45:23.253Z,12.72
2023-04-04T12:47:58.709Z,11.86
2023-04-04T12:50:30.835Z,12.01
2023-04-04T12:55:53.411Z,13.18
2023-04-04T12:58:24.651Z,13.63
2023-04-04T13:00:54.704Z,12.64
2023-04-04T13:03:24.505Z,12.96
2023-04-04T13:05:54.588Z,13.00
2023-04-04T13:08:22.042Z,12.83
2023-04-04T13:11:05.994Z,12.58
2023-04-04T13:13:44.270Z,12.79
2023-04-04T13:16:14.427Z,12.18
2023-04-04T13:18:44.216Z,11.96
2023-04-04T13:21:12.609Z,12.92
2023-04-04T13:23:41.412Z,13.29
2023-04-04T13:26:12.016Z,14.05
2023-04-04T13:28:39.622Z,14.12
2023-04-04T13:31:10.010Z,13.47
2023-04-04T13:33:38.071Z,13.33
2023-04-04T13:36:05.895Z,13.32
2023-04-04T13:38:32.970Z,17.66
2023-04-04T13:41:02.701Z,14.55
2023-04-04T13:43:29.944Z,15.55
2023-04-04T13:46:04.936Z,15.72
2023-04-04T13:48:34.200Z,17.36
2023-04-04T13:51:01.367Z,20.01
2023-04-04T13:53:28.488Z,17.88
2023-04-04T13:58:25.866Z,17.52
2023-04-04T14:00:52.964Z,16.15
2023-04-04T14:03:20.081Z,16.31
2023-04-04T14:05:51.531Z,17.72
2023-04-04T14:08:21.153Z,18.72
2023-04-04T14:10:50.538Z,18.52
2023-04-04T14:13:18.343Z,21.25
2023-04-04T14:15:50.491Z,19.75
2023-04-04T14:18:20.223Z,21.34
2023-04-04T14:20:49.803Z,20.05
2023-04-04T14:23:22.262Z,20.22
2023-04-04T14:25:50.890Z,19.57
2023-04-04T14:28:18.199Z,18.11
2023-04-04T14:30:45.235Z,21.57
2023-04-04T14:33:12.440Z,18.08
2023-04-04T14:35:39.707Z,18.34
2023-04-04T14:38:07.003Z,18.92
2023-04-04T14:40:38.656Z,19.90
2023-04-04T14:43:05.669Z,23.28
2023-04-04T14:45:33.325Z,21.92
2023-04-04T14:48:00.674Z,22.24
2023-04-04T14:50:30.144Z,21.26
2023-04-04T14:52:59.536Z,21.85
2023-04-04T14:55:27.068Z,21.92
2023-04-04T15:00:27.124Z,22.97
2023-04-04T15:02:59.575Z,23.80
2023-04-04T15:05:27.240Z,24.52
2023-04-04T15:07:55.739Z,24.61
2023-04-04T15:10:23.229Z,24.50
2023-04-04T15:12:53.319Z,24.79
2023-04-04T15:15:22.266Z,24.72
2023-04-04T15:17:55.592Z,25.00
2023-04-04T15:20:25.135Z,25.19
2023-04-04T15:22:52.299Z,25.23
2023-04-04T15:25:21.575Z,24.64
2023-04-04T15:27:54.431Z,25.04
2023-04-04T15:30:21.735Z,25.16
2023-04-04T15:32:49.037Z,25.51
2023-04-04T15:35:21.190Z,24.89
2023-04-04T15:37:49.752Z,25.87
2023-04-04T15:40:18.113Z,25.75
2023-04-04T15:42:46.435Z,25.55
2023-04-04T15:45:14.652Z,25.10
2023-04-04T15:47:42.638Z,25.44
2023-04-04T15:50:11.628Z,25.09
2023-04-04T15:52:41.874Z,24.82
2023-04-04T15:55:16.772Z,25.25
2023-04-04T15:57:44.878Z,26.31
2023-04-04T16:00:13.982Z,26.44
2023-04-04T16:02:41.263Z,26.12
2023-04-04T16:05:13.662Z,26.40
2023-04-04T16:07:42.794Z,26.71
2023-04-04T16:10:10.626Z,26.88
2023-04-04T16:12:37.860Z,27.07
2023-04-04T16:15:12.466Z,26.79
2023-04-04T16:17:39.395Z,27.34
2023-04-04T16:20:07.407Z,27.46
2023-04-04T16:22:37.014Z,27.49
2023-04-04T16:25:04.584Z,27.86
2023-04-04T16:27:31.794Z,27.91
2023-04-04T16:29:58.829Z,28.91
2023-04-04T16:32:31.667Z,27.80
2023-04-04T16:35:01.249Z,28.18
2023-04-04T16:37:30.790Z,29.20
2023-04-04T16:40:01.070Z,28.54
2023-04-04T16:42:28.309Z,28.94
2023-04-04T16:44:55.463Z,29.55
2023-04-04T16:47:26.131Z,29.11
2023-04-04T16:49:54.870Z,29.39
2023-04-04T16:52:24.114Z,30.67
2023-04-04T16:54:51.076Z,30.11
2023-04-04T16:57:18.226Z,30.53
2023-04-04T16:59:47.599Z,30.71
2023-04-04T17:02:19.860Z,30.11
2023-04-04T17:04:46.791Z,30.67
2023-04-04T17:07:16.377Z,31.18
2023-04-04T17:09:48.205Z,31.31
2023-04-04T17:12:16.275Z,31.23
2023-04-04T17:14:46.643Z,31.07
2023-04-04T17:17:17.391Z,31.67
2023-04-04T17:19:46.613Z,30.86
2023-04-04T17:22:16.441Z,30.96
2023-04-04T17:24:48.204Z,31.13
2023-04-04T17:27:15.247Z,31.11
2023-04-04T17:29:44.553Z,31.50
2023-04-04T17:32:15.297Z,31.55
2023-04-04T17:34:42.292Z,31.20
2023-04-04T17:37:11.259Z,32.00
2023-04-04T17:39:38.430Z,31.86
2023-04-04T17:42:05.997Z,32.30
2023-04-04T17:44:33.164Z,32.56
2023-04-04T17:47:03.099Z,32.30
2023-04-04T17:49:30.522Z,32.31
2023-04-04T17:51:59.768Z,32.96
2023-04-04T17:54:30.808Z,32.17
2023-04-04T17:57:00.323Z,32.83
2023-04-04T17:59:27.918Z,33.21
2023-04-04T18:01:57.340Z,33.02
2023-04-04T18:04:25.503Z,33.55
2023-04-04T18:06:54.781Z,34.06
2023-04-04T18:09:23.729Z,33.78
2023-04-04T18:11:51.250Z,34.70
2023-04-04T18:14:20.885Z,34.72
2023-04-04T18:16:47.884Z,34.30
2023-04-04T18:19:14.977Z,34.54
2023-04-04T18:21:49.732Z,34.68
2023-04-04T18:24:19.145Z,33.83
2023-04-04T18:26:48.691Z,35.25
2023-04-04T18:29:15.999Z,34.72
2023-04-04T18:31:43.139Z,34.62
2023-04-04T18:34:10.124Z,34.81
2023-04-04T18:36:42.331Z,35.39
2023-04-04T18:39:09.791Z,35.14
2023-04-04T18:41:39.654Z,34.94
2023-04-04T18:44:09.568Z,35.50
2023-04-04T18:46:38.208Z,36.68
2023-04-04T18:49:08.168Z,36.27
2023-04-04T18:51:35.288Z,36.05
2023-04-04T18:54:02.278Z,35.78
2023-04-04T18:56:34.184Z,36.38
2023-04-04T18:59:01.199Z,36.63
2023-04-04T19:01:28.713Z,37.19
2023-04-04T19:03:56.935Z,37.35
2023-04-04T19:06:27.530Z,37.05
2023-04-04T19:08:58.944Z,37.21
2023-04-04T19:11:29.020Z,37.89
2023-04-04T19:13:56.165Z,37.68
2023-04-04T19:16:24.074Z,37.09
2023-04-04T19:18:51.249Z,37.26
2023-04-04T19:21:18.344Z,37.42
2023-04-04T19:23:46.520Z,37.17
2023-04-04T19:26:18.265Z,37.71
2023-04-04T19:28:46.439Z,37.51
2023-04-04T19:31:30.142Z,37.39
2023-04-04T19:34:02.150Z,37.81
2023-04-04T19:36:33.555Z,37.49
2023-04-04T19:39:00.764Z,37.94
2023-04-04T19:41:48.556Z,38.14
2023-04-04T19:44:20.671Z,37.59
2023-04-04T19:46:47.840Z,38.72
2023-04-04T19:49:19.875Z,39.04
2023-04-04T19:51:56.844Z,39.35
2023-04-04T19:54:42.690Z,38.42
2023-04-04T19:57:20.614Z,39.50
2023-04-04T20:00:03.458Z,39.29
2023-04-04T20:02:33.652Z,40.05
2023-04-04T20:05:01.476Z,40.27
2023-04-04T20:07:29.495Z,39.89
2023-04-04T20:09:59.142Z,41.02
2023-04-04T20:12:29.822Z,41.00
2023-04-04T20:14:59.716Z,40.73
2023-04-04T20:17:29.073Z,40.87
2023-04-04T20:19:56.306Z,40.75
2023-04-04T20:22:23.684Z,40.92
2023-04-04T20:24:50.995Z,40.89
2023-04-04T20:27:24.425Z,41.06
2023-04-04T20:29:54.324Z,41.28
2023-04-04T20:32:21.476Z,42.38
2023-04-04T20:34:52.935Z,42.58
2023-04-04T20:37:29.182Z,43.52
2023-04-04T20:40:04.495Z,43.11
2023-04-04T20:42:38.064Z,43.47
2023-04-04T20:45:28.962Z,44.43
2023-04-04T20:48:01.727Z,43.29
2023-04-04T20:50:31.264Z,44.10
2023-04-04T20:53:04.760Z,44.22
2023-04-04T20:55:37.005Z,44.47
2023-04-04T20:58:12.186Z,46.44
2023-04-04T21:00:45.677Z,45.62
2023-04-04T21:03:31.029Z,46.20
2023-04-04T21:06:10.320Z,45.25
2023-04-04T21:08:45.944Z,47.65
2023-04-04T21:11:14.394Z,46.54
2023-04-04T21:13:46.864Z,47.73
2023-04-04T21:16:19.545Z,47.93
2023-04-04T21:18:49.054Z,49.37
2023-04-04T21:21:19.763Z,50.80
2023-04-04T21:23:54.423Z,51.38
2023-04-04T21:26:37.612Z,52.11
2023-04-04T21:29:08.493Z,51.89
2023-04-04T21:31:41.548Z,52.91
2023-04-04T21:34:21.406Z,53.45
2023-04-04T21:36:59.759Z,53.70
2023-04-04T21:39:29.725Z,53.29
2023-04-04T21:42:07.838Z,53.34
2023-04-04T21:44:36.394Z,53.78
2023-04-04T21:47:03.365Z,54.17
2023-04-04T21:49:32.550Z,55.17
2023-04-04T21:52:01.985Z,55.08
2023-04-04T21:54:31.519Z,55.57
2023-04-04T21:57:01.048Z,55.86
2023-04-04T21:59:30.112Z,57.01
2023-04-04T22:01:57.195Z,56.22
2023-04-04T22:04:24.176Z,57.32
2023-04-04T22:06:51.468Z,58.13
2023-04-04T22:09:19.265Z,58.53
2023-04-04T22:11:46.304Z,59.45
2023-04-04T22:14:17.464Z,59.48
2023-04-04T22:16:45.323Z,59.27
2023-04-04T22:19:12.533Z,59.10
2023-04-04T22:21:46.805Z,58.65
2023-04-04T22:24:18.319Z,58.76
2023-04-04T22:26:45.969Z,59.12
2023-04-04T22:29:13.276Z,58.81
2023-04-04T22:31:47.412Z,59.47
2023-04-04T22:34:15.455Z,59.26
2023-04-04T22:36:43.799Z,60.48
2023-04-04T22:39:10.871Z,60.22
2023-04-04T22:41:40.288Z,60.38
2023-04-04T22:44:09.448Z,60.38
2023-04-04T22:46:38.835Z,61.43
2023-04-04T22:49:07.120Z,61.31
2023-04-04T22:51:45.634Z,60.38
2023-04-04T22:54:15.630Z,61.46
2023-04-04T22:56:42.961Z,62.43
2023-04-04T22:59:10.107Z,62.44
2023-04-04T23:01:42.207Z,62.67
2023-04-04T23:04:11.935Z,62.83
2023-04-04T23:06:38.915Z,62.14
2023-04-04T23:09:07.839Z,62.60
2023-04-04T23:11:35.204Z,62.90
2023-04-04T23:14:09.590Z,63.36
2023-04-04T23:16:37.355Z,63.54
2023-04-04T23:19:05.028Z,63.38
2023-04-04T23:21:34.562Z,63.08
2023-04-04T23:24:03.612Z,62.88
2023-04-04T23:26:33.738Z,62.89
2023-04-04T23:29:06.380Z,62.88
2023-04-04T23:31:33.338Z,63.23
2023-04-04T23:34:00.498Z,63.14
2023-04-04T23:36:27.786Z,64.05
2023-04-04T23:38:57.071Z,63.28
2023-04-04T23:41:24.078Z,63.49
2023-04-04T23:43:51.199Z,64.01
2023-04-04T23:46:18.332Z,64.45
2023-04-04T23:48:47.951Z,63.59
2023-04-04T23:51:16.229Z,64.42
2023-04-04T23:53:48.658Z,64.92
2023-04-04T23:56:16.582Z,65.18
2023-04-04T23:58:46.261Z,65.01
